Time;durP1;ratioP1;P1;durP2;ratioP2;P2;SDS_P1;SDS_P2;PMS_P1;PMS_P2;Temp;Humidity;BMP_temperature;BMP_pressure;BME280_temperature;BME280_humidity;BME280_pressure;Samples;Min_cycle;Max_cycle;Signal;HPM_P1;HPM_P2
2024/04/17 00:02:18;;;;;;;;;;;;;;;;;;5427055;26;20363;-57
2024/04/17 00:04:43;;;;;;;;;;;;;;;;;;5442248;26;20459;-56
2024/04/17 00:07:09;;;;;;;;;;;;;;;;;;5432716;26;19939;-56
2024/04/17 00:09:35;;;;;;;;;;;;;;;;;;5420063;26;19932;-56
2024/04/17 00:12:01;;;;;;;;;;;;;;;;;;5446299;26;19924;-56
2024/04/17 00:14:27;;;;;;;;;;;;;;;;;;5426264;26;19925;-56
2024/04/17 00:16:53;;;;;;;;;;;;;;;;;;5430515;26;19931;-56
2024/04/17 00:19:19;;;;;;;;;;;;;;;;;;5430291;26;19999;-56
2024/04/17 00:21:45;;;;;;;;;;;;;;;;;;5423670;26;19925;-56
2024/04/17 00:24:11;;;;;;;;;;;;;;;;;;5441420;26;19932;-56
2024/04/17 00:26:37;;;;;;;;;;;;;;;;;;5429446;26;19974;-57
2024/04/17 00:29:03;;;;;;;;;;;;;;;;;;5455698;26;19924;-55
2024/04/17 00:31:29;;;;;;;;;;;;;;;;;;5447726;26;19924;-57
2024/04/17 00:33:55;;;;;;;;;;;;;;;;;;5442580;26;19993;-54
2024/04/17 00:36:21;;;;;;;;;;;;;;;;;;5431548;26;19993;-53
2024/04/17 00:38:47;;;;;;;;;;;;;;;;;;5453087;26;19931;-54
2024/04/17 00:41:13;;;;;;;;;;;;;;;;;;5437037;26;19993;-54
2024/04/17 00:43:38;;;;;;;;;;;;;;;;;;5432147;26;19997;-54
2024/04/17 00:46:04;;;;;;;;;;;;;;;;;;5431270;26;19932;-56
2024/04/17 00:48:30;;;;;;;;;;;;;;;;;;5423967;26;19929;-54
2024/04/17 00:50:57;;;;;;;;;;;;;;;;;;5426352;26;19924;-54
2024/04/17 00:53:23;;;;;;;;;;;;;;;;;;5446502;26;20357;-57
2024/04/17 00:55:49;;;;;;;;;;;;;;;;;;5449324;26;19924;-57
2024/04/17 00:58:15;;;;;;;;;;;;;;;;;;5438562;26;19975;-57
2024/04/17 01:00:41;;;;;;;;;;;;;;;;;;5438135;26;19932;-57
2024/04/17 01:03:07;;;;;;;;;;;;;;;;;;5442316;26;19936;-54
2024/04/17 01:05:33;;;;;;;;;;;;;;;;;;5439605;26;20274;-52
2024/04/17 01:07:59;;;;;;;;;;;;;;;;;;5435825;26;19924;-54
2024/04/17 01:10:25;;;;;;;;;;;;;;;;;;5430955;26;19945;-54
2024/04/17 01:12:51;;;;;;;;;;;;;;;;;;5430158;26;19932;-54
2024/04/17 01:15:21;;;;;;;;;;;;;;;;;;5443283;26;20347;-54
2024/04/17 01:17:47;;;;;;;;;;;;;;;;;;5434727;26;20355;-54
2024/04/17 01:20:13;;;;;;;;;;;;;;;;;;5445398;26;19932;-54
2024/04/17 01:22:39;;;;;;;;;;;;;;;;;;5439341;26;19925;-54
2024/04/17 01:25:04;;;;;;;;;;;;;;;;;;5432684;26;19925;-53
2024/04/17 01:27:30;;;;;;;;;;;;;;;;;;5432794;26;19925;-55
2024/04/17 01:29:56;;;;;;;;;;;;;;;;;;5414357;26;19925;-53
2024/04/17 01:32:22;;;;;;;;;;;;;;;;;;5427950;26;19925;-54
2024/04/17 01:34:48;;;;;;;;;;;;;;;;;;5449360;26;19993;-53
2024/04/17 01:37:14;;;;;;;;;;;;;;;;;;5427805;26;19924;-53
2024/04/17 01:39:40;;;;;;;;;;;;;;;;;;5433945;26;20467;-53
2024/04/17 01:42:06;;;;;;;;;;;;;;;;;;5430388;26;19924;-55
2024/04/17 01:44:32;;;;;;;;;;;;;;;;;;5446844;26;19935;-57
2024/04/17 01:46:58;;;;;;;;;;;;;;;;;;5432674;26;19924;-57
2024/04/17 01:49:24;;;;;;;;;;;;;;;;;;5414988;26;19925;-57
2024/04/17 01:51:50;;;;;;;;;;;;;;;;;;5430932;26;20372;-57
2024/04/17 01:54:16;;;;;;;;;;;;;;;;;;5429008;26;19933;-56
2024/04/17 01:56:42;;;;;;;;;;;;;;;;;;5440716;26;19925;-55
2024/04/17 01:59:08;;;;;;;;;;;;;;;;;;5417316;26;19932;-55
2024/04/17 02:01:33;;;;;;;;;;;;;;;;;;5417709;26;19924;-57
2024/04/17 02:03:59;;;;;;;;;;;;;;;;;;5437831;26;20294;-54
2024/04/17 02:06:25;;;;;;;;;;;;;;;;;;5428646;26;20382;-54
2024/04/17 02:08:51;;;;;;;;;;;;;;;;;;5445399;26;19932;-55
2024/04/17 02:11:17;;;;;;;;;;;;;;;;;;5445048;26;20288;-55
2024/04/17 02:13:43;;;;;;;;;;;;;;;;;;5429819;26;19925;-54
2024/04/17 02:16:09;;;;;;;;;;;;;;;;;;5438868;26;20267;-53
2024/04/17 02:18:35;;;;;;;;;;;;;;;;;;5440607;26;20326;-53
2024/04/17 02:21:01;;;;;;;;;;;;;;;;;;5413724;26;19925;-54
2024/04/17 02:23:28;;;;;;;;;;;;;;;;;;5443740;26;19931;-54
2024/04/17 02:25:54;;;;;;;;;;;;;;;;;;5446012;26;19930;-53
2024/04/17 02:28:20;;;;;;;;;;;;;;;;;;5431045;26;19933;-55
2024/04/17 02:30:46;;;;;;;;;;;;;;;;;;5436296;26;20356;-53
2024/04/17 02:33:12;;;;;;;;;;;;;;;;;;5439987;26;19931;-53
2024/04/17 02:35:38;;;;;;;;;;;;;;;;;;5449631;26;19924;-53
2024/04/17 02:38:04;;;;;;;;;;;;;;;;;;5439395;26;19925;-54
2024/04/17 02:40:29;;;;;;;;;;;;;;;;;;5418010;26;19925;-54
2024/04/17 02:42:55;;;;;;;;;;;;;;;;;;5433640;26;19940;-54
2024/04/17 02:45:21;;;;;;;;;;;;;;;;;;5447015;26;20693;-54
2024/04/17 02:47:47;;;;;;;;;;;;;;;;;;5434739;26;20351;-53
2024/04/17 02:50:13;;;;;;;;;;;;;;;;;;5449319;26;19925;-54
2024/04/17 02:52:39;;;;;;;;;;;;;;;;;;5446337;26;19940;-53
2024/04/17 02:55:05;;;;;;;;;;;;;;;;;;5435289;26;19933;-54
2024/04/17 02:57:31;;;;;;;;;;;;;;;;;;5422749;26;19974;-54
2024/04/17 02:59:57;;;;;;;;;;;;;;;;;;5413521;26;19926;-54
2024/04/17 03:02:23;;;;;;;;;;;;;;;;;;5436564;26;19931;-54
2024/04/17 03:04:49;;;;;;;;;;;;;;;;;;5448922;26;20267;-54
2024/04/17 03:07:15;;;;;;;;;;;;;;;;;;5433728;26;20260;-53
2024/04/17 03:09:41;;;;;;;;;;;;;;;;;;5413747;26;19925;-54
2024/04/17 03:12:06;;;;;;;;;;;;;;;;;;5435920;26;19936;-53
2024/04/17 03:14:32;;;;;;;;;;;;;;;;;;5440365;26;20318;-56
2024/04/17 03:16:58;;;;;;;;;;;;;;;;;;5422801;26;20352;-56
2024/04/17 03:19:24;;;;;;;;;;;;;;;;;;5415336;26;19925;-57
2024/04/17 03:21:50;;;;;;;;;;;;;;;;;;5429157;26;20333;-57
2024/04/17 03:24:16;;;;;;;;;;;;;;;;;;5448342;26;19992;-53
2024/04/17 03:26:42;;;;;;;;;;;;;;;;;;5440721;26;19974;-53
2024/04/17 03:29:08;;;;;;;;;;;;;;;;;;5428326;26;19932;-54
2024/04/17 03:31:34;;;;;;;;;;;;;;;;;;5426666;26;19940;-53
2024/04/17 03:34:00;;;;;;;;;;;;;;;;;;5434434;26;20394;-54
2024/04/17 03:36:26;;;;;;;;;;;;;;;;;;5434700;26;19933;-57
2024/04/17 03:38:52;;;;;;;;;;;;;;;;;;5447590;26;19924;-57
2024/04/17 03:41:18;;;;;;;;;;;;;;;;;;5440446;26;19925;-57
2024/04/17 03:43:44;;;;;;;;;;;;;;;;;;5436998;26;19925;-57
2024/04/17 03:46:10;;;;;;;;;;;;;;;;;;5422821;26;19932;-57
2024/04/17 03:48:35;;;;;;;;;;;;;;;;;;5441521;26;20455;-57
2024/04/17 03:51:01;;;;;;;;;;;;;;;;;;5422709;26;19971;-56
2024/04/17 03:53:27;;;;;;;;;;;;;;;;;;5434930;26;19925;-57
2024/04/17 03:55:53;;;;;;;;;;;;;;;;;;5444623;26;19932;-56
2024/04/17 03:58:19;;;;;;;;;;;;;;;;;;5433331;26;20382;-57
2024/04/17 04:00:45;;;;;;;;;;;;;;;;;;5444144;26;19940;-56
2024/04/17 04:03:11;;;;;;;;;;;;;;;;;;5440434;26;19924;-56
2024/04/17 04:05:37;;;;;;;;;;;;;;;;;;5448568;26;20352;-54
2024/04/17 04:08:03;;;;;;;;;;;;;;;;;;5439968;26;19932;-55
2024/04/17 04:10:29;;;;;;;;;;;;;;;;;;5429412;26;19924;-55
2024/04/17 04:12:55;;;;;;;;;;;;;;;;;;5444699;26;19936;-55
2024/04/17 04:15:21;;;;;;;;;;;;;;;;;;5422986;26;19925;-55
2024/04/17 04:17:47;;;;;;;;;;;;;;;;;;5441242;26;19924;-55
2024/04/17 04:20:13;;;;;;;;;;;;;;;;;;5437922;26;19933;-55
2024/04/17 04:22:39;;;;;;;;;;;;;;;;;;5428481;26;19934;-56
2024/04/17 04:25:05;;;;;;;;;;;;;;;;;;5435411;26;19925;-55
2024/04/17 04:27:31;;;;;;;;;;;;;;;;;;5425172;26;19925;-55
2024/04/17 04:29:57;;;;;;;;;;;;;;;;;;5427796;26;19924;-56
2024/04/17 04:32:23;;;;;;;;;;;;;;;;;;5443723;26;20249;-55
2024/04/17 04:34:48;;;;;;;;;;;;;;;;;;5448560;26;20355;-53
2024/04/17 04:37:14;;;;;;;;;;;;;;;;;;5451282;26;19924;-53
2024/04/17 04:39:40;;;;;;;;;;;;;;;;;;5433392;26;19928;-54
2024/04/17 04:42:07;;;;;;;;;;;;;;;;;;5439949;26;19924;-53
2024/04/17 04:44:33;;;;;;;;;;;;;;;;;;5433857;26;19933;-53
2024/04/17 04:47:01;;;;;;;;;;;;;;;;;;5434055;26;19932;-53
2024/04/17 04:49:27;;;;;;;;;;;;;;;;;;5432683;26;20360;-51
2024/04/17 04:51:53;;;;;;;;;;;;;;;;;;5446484;26;19998;-52
2024/04/17 04:54:19;;;;;;;;;;;;;;;;;;5431192;26;19931;-53
2024/04/17 04:56:45;;;;;;;;;;;;;;;;;;5415885;26;19932;-53
2024/04/17 04:59:10;;;;;;;;;;;;;;;;;;5430436;26;19936;-53
2024/04/17 05:01:36;;;;;;;;;;;;;;;;;;5435225;26;19924;-53
2024/04/17 05:04:02;;;;;;;;;;;;;;;;;;5440093;26;19941;-52
2024/04/17 05:06:28;;;;;;;;;;;;;;;;;;5417244;26;19932;-53
2024/04/17 05:08:54;;;;;;;;;;;;;;;;;;5451003;26;19932;-54
2024/04/17 05:11:20;;;;;;;;;;;;;;;;;;5438545;26;19940;-54
2024/04/17 05:13:46;;;;;;;;;;;;;;;;;;5432650;26;19932;-54
2024/04/17 05:16:12;;;;;;;;;;;;;;;;;;5425739;26;19932;-54
2024/04/17 05:18:38;;;;;;;;;;;;;;;;;;5432059;26;19924;-54
2024/04/17 05:21:04;;;;;;;;;;;;;;;;;;5423681;26;19925;-53
2024/04/17 05:23:30;;;;;;;;;;;;;;;;;;5448262;26;19936;-54
2024/04/17 05:25:56;;;;;;;;;;;;;;;;;;5419122;26;19925;-54
2024/04/17 05:28:22;;;;;;;;;;;;;;;;;;5417090;26;19936;-54
2024/04/17 05:30:47;;;;;;;;;;;;;;;;;;5416102;26;20306;-53
2024/04/17 05:33:13;;;;;;;;;;;;;;;;;;5415076;26;19925;-54
2024/04/17 05:35:39;;;;;;;;;;;;;;;;;;5436901;26;19929;-54
2024/04/17 05:38:05;;;;;;;;;;;;;;;;;;5427983;26;19931;-54
2024/04/17 05:40:31;;;;;;;;;;;;;;;;;;5435372;26;19924;-54
2024/04/17 05:42:57;;;;;;;;;;;;;;;;;;5427179;26;19932;-54
2024/04/17 05:45:23;;;;;;;;;;;;;;;;;;5422205;26;19925;-53
2024/04/17 05:47:49;;;;;;;;;;;;;;;;;;5435722;26;20292;-53
2024/04/17 05:50:15;;;;;;;;;;;;;;;;;;5415135;26;20486;-53
2024/04/17 05:52:41;;;;;;;;;;;;;;;;;;5425746;26;20623;-54
2024/04/17 05:55:07;;;;;;;;;;;;;;;;;;5416909;26;19927;-54
2024/04/17 05:57:33;;;;;;;;;;;;;;;;;;5422165;26;19925;-54
2024/04/17 05:59:59;;;;;;;;;;;;;;;;;;5425795;26;19925;-54
2024/04/17 06:02:25;;;;;;;;;;;;;;;;;;5419297;26;19925;-53
2024/04/17 06:04:51;;;;;;;;;;;;;;;;;;5424670;26;19925;-53
2024/04/17 06:07:17;;;;;;;;;;;;;;;;;;5441691;26;19993;-54
2024/04/17 06:09:43;;;;;;;;;;;;;;;;;;5433541;26;19933;-54
2024/04/17 06:12:08;;;;;;;;;;;;;;;;;;5417238;26;19936;-54
2024/04/17 06:14:34;;;;;;;;;;;;;;;;;;5421285;26;20273;-54
2024/04/17 06:17:00;;;;;;;;;;;;;;;;;;5432983;26;19924;-54
2024/04/17 06:19:26;;;;;;;;;;;;;;;;;;5440596;26;19936;-54
2024/04/17 06:21:52;;;;;;;;;;;;;;;;;;5419515;26;19933;-54
2024/04/17 06:24:18;;;;;;;;;;;;;;;;;;5413640;26;19940;-53
2024/04/17 06:26:44;;;;;;;;;;;;;;;;;;5416360;26;19925;-54
2024/04/17 06:29:10;;;;;;;;;;;;;;;;;;5430605;26;19931;-53
2024/04/17 06:31:36;;;;;;;;;;;;;;;;;;5433191;26;19925;-55
2024/04/17 06:34:02;;;;;;;;;;;;;;;;;;5421306;26;19932;-56
2024/04/17 06:36:28;;;;;;;;;;;;;;;;;;5482213;26;19931;-53
2024/04/17 06:38:54;;;;;;;;;;;;;;;;;;5418304;26;19932;-53
2024/04/17 06:41:20;;;;;;;;;;;;;;;;;;5412147;26;19940;-53
2024/04/17 06:43:45;;;;;;;;;;;;;;;;;;5448145;26;19936;-53
2024/04/17 06:46:11;;;;;;;;;;;;;;;;;;5449793;26;20256;-53
2024/04/17 06:48:37;;;;;;;;;;;;;;;;;;5445420;26;19936;-53
2024/04/17 06:51:03;;;;;;;;;;;;;;;;;;5449707;26;19966;-53
2024/04/17 06:53:29;;;;;;;;;;;;;;;;;;5449129;26;19993;-53
2024/04/17 06:55:56;;;;;;;;;;;;;;;;;;5447449;26;19925;-56
2024/04/17 06:58:22;;;;;;;;;;;;;;;;;;5438963;26;19951;-56
2024/04/17 07:00:48;;;;;;;;;;;;;;;;;;5448863;26;19935;-56
2024/04/17 07:03:14;;;;;;;;;;;;;;;;;;5449017;26;20357;-56
2024/04/17 07:05:40;;;;;;;;;;;;;;;;;;5414066;26;19932;-55
2024/04/17 07:08:06;;;;;;;;;;;;;;;;;;5437660;26;19924;-56
2024/04/17 07:10:32;;;;;;;;;;;;;;;;;;5447729;26;19932;-55
2024/04/17 07:12:58;;;;;;;;;;;;;;;;;;5434625;26;19936;-55
2024/04/17 07:15:24;;;;;;;;;;;;;;;;;;5418190;26;19932;-55
2024/04/17 07:17:49;;;;;;;;;;;;;;;;;;5423832;26;19936;-55
2024/04/17 07:20:16;;;;;;;;;;;;;;;;;;5424835;26;20348;-55
2024/04/17 07:22:42;;;;;;;;;;;;;;;;;;5447509;26;20261;-56
2024/04/17 07:25:08;;;;;;;;;;;;;;;;;;5447401;26;20005;-53
2024/04/17 07:27:34;;;;;;;;;;;;;;;;;;5429195;26;20344;-55
2024/04/17 07:30:00;;;;;;;;;;;;;;;;;;5447380;26;19932;-52
2024/04/17 07:32:26;;;;;;;;;;;;;;;;;;5444573;26;20306;-55
2024/04/17 07:34:52;;;;;;;;;;;;;;;;;;5448077;26;20466;-53
2024/04/17 07:37:19;;;;;;;;;;;;;;;;;;5445360;26;19928;-56
2024/04/17 07:39:45;;;;;;;;;;;;;;;;;;5411577;26;19925;-54
2024/04/17 07:42:11;;;;;;;;;;;;;;;;;;5421066;26;19924;-55
2024/04/17 07:44:37;;;;;;;;;;;;;;;;;;5447520;26;20268;-57
2024/04/17 07:47:02;;;;;;;;;;;;;;;;;;5430707;26;20279;-55
2024/04/17 07:49:28;;;;;;;;;;;;;;;;;;5438216;26;20357;-57
2024/04/17 07:51:54;;;;;;;;;;;;;;;;;;5418869;26;20288;-54
2024/04/17 07:54:20;;;;;;;;;;;;;;;;;;5447494;26;19925;-56
2024/04/17 07:56:46;;;;;;;;;;;;;;;;;;5430773;26;20002;-54
2024/04/17 07:59:12;;;;;;;;;;;;;;;;;;5441716;26;19933;-54
2024/04/17 08:01:41;;;;;;;;;;;;;;;;;;5444826;26;19925;-54
2024/04/17 08:04:07;;;;;;;;;;;;;;;;;;5423021;26;20478;-55
2024/04/17 08:06:33;;;;;;;;;;;;;;;;;;5433289;26;19947;-55
2024/04/17 08:08:59;;;;;;;;;;;;;;;;;;5449542;26;19924;-55
2024/04/17 08:11:26;;;;;;;;;;;;;;;;;;5448236;26;19924;-55
2024/04/17 08:13:52;;;;;;;;;;;;;;;;;;5450998;26;20498;-55
2024/04/17 08:16:18;;;;;;;;;;;;;;;;;;5449995;26;19935;-55
2024/04/17 08:18:44;;;;;;;;;;;;;;;;;;5451925;26;19924;-55
2024/04/17 08:21:10;;;;;;;;;;;;;;;;;;5440576;26;19936;-55
2024/04/17 08:23:36;;;;;;;;;;;;;;;;;;5420212;26;19957;-55
2024/04/17 08:26:02;;;;;;;;;;;;;;;;;;5414342;26;19932;-55
2024/04/17 08:28:28;;;;;;;;;;;;;;;;;;5429882;26;20247;-55
2024/04/17 08:30:54;;;;;;;;;;;;;;;;;;5415201;26;19933;-55
2024/04/17 08:33:20;;;;;;;;;;;;;;;;;;5420990;26;19932;-55
2024/04/17 08:35:46;;;;;;;;;;;;;;;;;;5415269;26;19925;-56
2024/04/17 08:38:12;;;;;;;;;;;;;;;;;;5441298;26;19932;-53
2024/04/17 08:40:38;;;;;;;;;;;;;;;;;;5450302;26;19924;-53
2024/04/17 08:43:04;;;;;;;;;;;;;;;;;;5448818;26;20360;-53
2024/04/17 08:45:30;;;;;;;;;;;;;;;;;;5447649;26;19933;-53
2024/04/17 08:47:55;;;;;;;;;;;;;;;;;;5437524;26;19997;-54
2024/04/17 08:50:29;;;;;;;;;;;;;;;;;;5451047;26;19932;-55
2024/04/17 08:52:55;;;;;;;;;;;;;;;;;;5449431;26;19924;-53
2024/04/17 08:55:21;;;;;;;;;;;;;;;;;;5450116;26;19993;-53
2024/04/17 08:57:47;;;;;;;;;;;;;;;;;;5446057;26;19936;-53
2024/04/17 09:00:13;;;;;;;;;;;;;;;;;;5442033;26;19940;-53
2024/04/17 09:02:39;;;;;;;;;;;;;;;;;;5427829;26;19928;-54
2024/04/17 09:05:05;;;;;;;;;;;;;;;;;;5439843;26;19924;-54
2024/04/17 09:07:31;;;;;;;;;;;;;;;;;;5440699;26;19924;-52
2024/04/17 09:09:56;;;;;;;;;;;;;;;;;;5440905;26;19925;-54
2024/04/17 09:12:22;;;;;;;;;;;;;;;;;;5427023;26;20384;-53
2024/04/17 09:14:48;;;;;;;;;;;;;;;;;;5448048;26;20289;-53
2024/04/17 09:17:14;;;;;;;;;;;;;;;;;;5429410;26;20454;-54
2024/04/17 09:19:40;;;;;;;;;;;;;;;;;;5443407;26;21374;-53
2024/04/17 09:22:06;;;;;;;;;;;;;;;;;;5444030;26;19928;-55
2024/04/17 09:24:32;;;;;;;;;;;;;;;;;;5447833;26;20357;-53
2024/04/17 09:26:58;;;;;;;;;;;;;;;;;;5432968;26;19941;-53
2024/04/17 09:29:24;;;;;;;;;;;;;;;;;;5428611;26;19940;-54
2024/04/17 09:31:50;;;;;;;;;;;;;;;;;;5420456;26;19928;-53
2024/04/17 09:34:16;;;;;;;;;;;;;;;;;;5418333;26;19925;-54
2024/04/17 09:36:42;;;;;;;;;;;;;;;;;;5414761;26;19994;-53
2024/04/17 09:39:09;;;;;;;;;;;;;;;;;;5414224;26;19939;-53
2024/04/17 09:41:35;;;;;;;;;;;;;;;;;;5438407;26;19931;-54
2024/04/17 09:44:02;;;;;;;;;;;;;;;;;;5416488;26;19937;-54
2024/04/17 09:46:27;;;;;;;;;;;;;;;;;;5421481;26;19929;-53
2024/04/17 09:48:53;;;;;;;;;;;;;;;;;;5421650;26;20273;-53
2024/04/17 09:51:20;;;;;;;;;;;;;;;;;;5418177;26;20308;-54
2024/04/17 09:53:46;;;;;;;;;;;;;;;;;;5418270;26;19925;-56
2024/04/17 09:56:12;;;;;;;;;;;;;;;;;;5425266;26;19933;-54
2024/04/17 09:58:38;;;;;;;;;;;;;;;;;;5442831;26;20249;-55
2024/04/17 10:01:05;;;;;;;;;;;;;;;;;;5423159;26;20366;-56
2024/04/17 10:03:31;;;;;;;;;;;;;;;;;;5445559;26;19931;-56
2024/04/17 10:05:57;;;;;;;;;;;;;;;;;;5428535;26;19924;-55
2024/04/17 10:08:23;;;;;;;;;;;;;;;;;;5428911;26;20245;-56
2024/04/17 10:10:49;;;;;;;;;;;;;;;;;;5421607;26;20367;-56
2024/04/17 10:13:14;;;;;;;;;;;;;;;;;;5427819;26;19940;-56
2024/04/17 10:15:40;;;;;;;;;;;;;;;;;;5418472;26;19940;-55
2024/04/17 10:18:06;;;;;;;;;;;;;;;;;;5438201;26;20002;-56
2024/04/17 10:20:32;;;;;;;;;;;;;;;;;;5441207;26;20246;-56
2024/04/17 10:22:58;;;;;;;;;;;;;;;;;;5432017;26;20194;-56
2024/04/17 10:25:26;;;;;;;;;;;;;;;;;;5439906;26;20531;-56
2024/04/17 10:27:52;;;;;;;;;;;;;;;;;;5432113;26;20261;-56
2024/04/17 10:30:18;;;;;;;;;;;;;;;;;;5448785;26;19924;-55
2024/04/17 10:32:44;;;;;;;;;;;;;;;;;;5446251;26;19925;-56
2024/04/17 10:35:10;;;;;;;;;;;;;;;;;;5413449;26;19925;-56
2024/04/17 10:37:36;;;;;;;;;;;;;;;;;;5430634;26;19932;-57
2024/04/17 10:40:02;;;;;;;;;;;;;;;;;;5448125;26;19993;-57
2024/04/17 10:42:28;;;;;;;;;;;;;;;;;;5431866;26;19997;-57
2024/04/17 10:44:54;;;;;;;;;;;;;;;;;;5438126;26;20252;-56
2024/04/17 10:47:20;;;;;;;;;;;;;;;;;;5426842;26;19924;-57
2024/04/17 10:49:46;;;;;;;;;;;;;;;;;;5448735;26;19932;-56
2024/04/17 10:52:12;;;;;;;;;;;;;;;;;;5448648;26;20260;-58
2024/04/17 10:54:38;;;;;;;;;;;;;;;;;;5448957;26;19931;-56
2024/04/17 10:57:04;;;;;;;;;;;;;;;;;;5448240;26;20332;-55
2024/04/17 10:59:30;;;;;;;;;;;;;;;;;;5447930;26;19940;-55
2024/04/17 11:01:56;;;;;;;;;;;;;;;;;;5437246;26;19925;-54
2024/04/17 11:04:23;;;;;;;;;;;;;;;;;;5411175;26;19924;-54
2024/04/17 11:06:49;;;;;;;;;;;;;;;;;;5413988;26;20436;-54
2024/04/17 11:09:16;;;;;;;;;;;;;;;;;;5413586;26;19936;-55
2024/04/17 11:11:41;;;;;;;;;;;;;;;;;;5413349;26;20006;-55
2024/04/17 11:14:07;;;;;;;;;;;;;;;;;;5451134;26;20332;-54
2024/04/17 11:16:35;;;;;;;;;;;;;;;;;;5418787;26;20471;-53
2024/04/17 11:19:01;;;;;;;;;;;;;;;;;;5447312;26;19932;-54
2024/04/17 11:21:27;;;;;;;;;;;;;;;;;;5448448;26;19928;-55
2024/04/17 11:23:53;;;;;;;;;;;;;;;;;;5416073;26;19925;-53
2024/04/17 11:26:19;;;;;;;;;;;;;;;;;;5428652;26;19924;-54
2024/04/17 11:28:45;;;;;;;;;;;;;;;;;;5448263;26;19924;-54
2024/04/17 11:31:11;;;;;;;;;;;;;;;;;;5427716;26;20242;-54
2024/04/17 11:33:37;;;;;;;;;;;;;;;;;;5444800;26;20164;-54
2024/04/17 11:36:03;;;;;;;;;;;;;;;;;;5434701;26;19925;-53
2024/04/17 11:38:29;;;;;;;;;;;;;;;;;;5443205;26;19994;-54
2024/04/17 11:40:55;;;;;;;;;;;;;;;;;;5447245;26;19932;-53
2024/04/17 11:43:21;;;;;;;;;;;;;;;;;;5446777;26;19924;-54
2024/04/17 11:45:47;;;;;;;;;;;;;;;;;;5437227;26;19933;-54
2024/04/17 11:48:13;;;;;;;;;;;;;;;;;;5438984;26;19996;-54
2024/04/17 11:50:39;;;;;;;;;;;;;;;;;;5448177;26;19932;-55
2024/04/17 11:53:05;;;;;;;;;;;;;;;;;;5435478;26;19925;-54
2024/04/17 11:55:31;;;;;;;;;;;;;;;;;;5411173;26;19925;-55
2024/04/17 11:57:57;;;;;;;;;;;;;;;;;;5433908;26;19924;-55
2024/04/17 12:00:23;;;;;;;;;;;;;;;;;;5446676;26;19981;-56
2024/04/17 12:02:49;;;;;;;;;;;;;;;;;;5432809;26;20227;-56
2024/04/17 12:05:15;;;;;;;;;;;;;;;;;;5449560;26;19924;-54
2024/04/17 12:07:44;;;;;;;;;;;;;;;;;;5443795;26;19925;-54
2024/04/17 12:10:09;;;;;;;;;;;;;;;;;;5445643;26;19924;-54
2024/04/17 12:12:36;;;;;;;;;;;;;;;;;;5441042;26;19985;-54
2024/04/17 12:15:01;;;;;;;;;;;;;;;;;;5440692;26;20002;-54
2024/04/17 12:17:27;;;;;;;;;;;;;;;;;;5440445;26;19924;-55
2024/04/17 12:19:53;;;;;;;;;;;;;;;;;;5427574;26;19925;-53
2024/04/17 12:22:19;;;;;;;;;;;;;;;;;;5434225;26;20402;-53
2024/04/17 12:27:30;;;;;;;;;;;;;;;;;;5430885;26;19989;-54
2024/04/17 12:29:56;;;;;;;;;;;;;;;;;;5431923;26;19932;-53
2024/04/17 12:32:22;;;;;;;;;;;;;;;;;;5439672;26;19932;-54
2024/04/17 12:34:47;;;;;;;;;;;;;;;;;;5436561;26;20002;-54
2024/04/17 12:37:15;;;;;;;;;;;;;;;;;;5426700;26;19933;-54
2024/04/17 12:39:41;;;;;;;;;;;;;;;;;;5414554;26;20526;-54
2024/04/17 12:42:07;;;;;;;;;;;;;;;;;;5425992;26;19928;-54
2024/04/17 12:44:33;;;;;;;;;;;;;;;;;;5418635;26;19935;-54
2024/04/17 12:46:58;;;;;;;;;;;;;;;;;;5419785;26;19932;-54
2024/04/17 12:49:24;;;;;;;;;;;;;;;;;;5437440;26;19925;-53
2024/04/17 12:51:50;;;;;;;;;;;;;;;;;;5415214;26;19932;-53
2024/04/17 12:54:16;;;;;;;;;;;;;;;;;;5428044;26;19929;-54
2024/04/17 12:56:42;;;;;;;;;;;;;;;;;;5431474;26;20268;-55
2024/04/17 12:59:09;;;;;;;;;;;;;;;;;;5422403;26;19932;-54
2024/04/17 13:01:35;;;;;;;;;;;;;;;;;;5432238;26;19924;-54
2024/04/17 13:04:01;;;;;;;;;;;;;;;;;;5417217;26;19963;-53
2024/04/17 13:06:27;;;;;;;;;;;;;;;;;;5435975;26;19924;-54
2024/04/17 13:08:53;;;;;;;;;;;;;;;;;;5416084;26;19925;-56
2024/04/17 13:11:19;;;;;;;;;;;;;;;;;;5413316;26;19932;-56
2024/04/17 13:13:45;;;;;;;;;;;;;;;;;;5440667;26;19925;-56
2024/04/17 13:16:11;;;;;;;;;;;;;;;;;;5442864;26;19925;-56
2024/04/17 13:18:38;;;;;;;;;;;;;;;;;;5433294;26;19933;-54
2024/04/17 13:21:04;;;;;;;;;;;;;;;;;;5420629;26;19925;-54
2024/04/17 13:23:30;;;;;;;;;;;;;;;;;;5420993;26;19932;-56
2024/04/17 13:25:56;;;;;;;;;;;;;;;;;;5415522;26;19952;-54
2024/04/17 13:28:22;;;;;;;;;;;;;;;;;;5431919;26;19932;-56
2024/04/17 13:30:48;;;;;;;;;;;;;;;;;;5424274;26;20417;-56
2024/04/17 13:33:14;;;;;;;;;;;;;;;;;;5424076;26;19932;-57
2024/04/17 13:35:40;;;;;;;;;;;;;;;;;;5427653;26;19932;-57
2024/04/17 13:38:06;;;;;;;;;;;;;;;;;;5429353;26;19925;-57
2024/04/17 13:40:32;;;;;;;;;;;;;;;;;;5439409;26;19925;-57
2024/04/17 13:42:58;;;;;;;;;;;;;;;;;;5431514;26;19940;-57
2024/04/17 13:45:24;;;;;;;;;;;;;;;;;;5434987;26;19999;-57
2024/04/17 13:47:50;;;;;;;;;;;;;;;;;;5417875;26;19936;-58
2024/04/17 13:50:16;;;;;;;;;;;;;;;;;;5413707;26;19993;-57
2024/04/17 13:52:41;;;;;;;;;;;;;;;;;;5421568;26;19925;-57
2024/04/17 13:55:07;;;;;;;;;;;;;;;;;;5444366;26;20235;-58
2024/04/17 13:57:33;;;;;;;;;;;;;;;;;;5435142;26;19926;-58
2024/04/17 13:59:59;;;;;;;;;;;;;;;;;;5429259;26;19931;-57
2024/04/17 14:02:25;;;;;;;;;;;;;;;;;;5427660;26;19932;-57
2024/04/17 14:04:51;;;;;;;;;;;;;;;;;;5413091;26;19956;-57
2024/04/17 14:07:17;;;;;;;;;;;;;;;;;;5422377;26;20359;-57
2024/04/17 14:09:43;;;;;;;;;;;;;;;;;;5419716;26;20379;-58
2024/04/17 14:12:09;;;;;;;;;;;;;;;;;;5423087;26;19936;-61
2024/04/17 14:14:35;;;;;;;;;;;;;;;;;;5418540;26;19932;-57
2024/04/17 14:17:01;;;;;;;;;;;;;;;;;;5428114;26;19925;-58
2024/04/17 14:19:27;;;;;;;;;;;;;;;;;;5427311;26;19925;-58
2024/04/17 14:21:53;;;;;;;;;;;;;;;;;;5449427;26;19929;-57
2024/04/17 14:24:19;;;;;;;;;;;;;;;;;;5448872;26;19925;-57
2024/04/17 14:26:45;;;;;;;;;;;;;;;;;;5448167;26;19924;-58
2024/04/17 14:29:11;;;;;;;;;;;;;;;;;;5421182;26;19935;-57
2024/04/17 14:31:37;;;;;;;;;;;;;;;;;;5448580;26;19931;-57
2024/04/17 14:34:03;;;;;;;;;;;;;;;;;;5423547;26;19935;-57
2024/04/17 14:36:30;;;;;;;;;;;;;;;;;;5427006;26;19946;-57
2024/04/17 14:38:56;;;;;;;;;;;;;;;;;;5450160;26;19926;-54
2024/04/17 14:41:22;;;;;;;;;;;;;;;;;;5448477;26;19928;-55
2024/04/17 14:43:48;;;;;;;;;;;;;;;;;;5429540;26;20308;-54
2024/04/17 14:46:14;;;;;;;;;;;;;;;;;;5446816;26;20317;-55
2024/04/17 14:48:39;;;;;;;;;;;;;;;;;;5451986;26;20322;-54
2024/04/17 14:51:05;;;;;;;;;;;;;;;;;;5449199;26;19932;-54
2024/04/17 14:53:31;;;;;;;;;;;;;;;;;;5433192;26;19925;-55
2024/04/17 14:55:57;;;;;;;;;;;;;;;;;;5420962;26;19932;-55
2024/04/17 14:58:23;;;;;;;;;;;;;;;;;;5436960;26;19932;-54
2024/04/17 15:00:49;;;;;;;;;;;;;;;;;;5433066;26;19932;-54
2024/04/17 15:03:15;;;;;;;;;;;;;;;;;;5425512;26;19993;-54
2024/04/17 15:05:41;;;;;;;;;;;;;;;;;;5421706;26;19932;-54
2024/04/17 15:08:07;;;;;;;;;;;;;;;;;;5425922;26;19925;-55
2024/04/17 15:10:33;;;;;;;;;;;;;;;;;;5445442;26;20264;-55
2024/04/17 15:12:59;;;;;;;;;;;;;;;;;;5424930;26;19932;-55
2024/04/17 15:15:25;;;;;;;;;;;;;;;;;;5431375;26;19946;-55
2024/04/17 15:17:51;;;;;;;;;;;;;;;;;;5432788;26;19925;-54
2024/04/17 15:20:17;;;;;;;;;;;;;;;;;;5412185;26;19932;-55
2024/04/17 15:22:43;;;;;;;;;;;;;;;;;;5438807;26;19924;-55
2024/04/17 15:25:09;;;;;;;;;;;;;;;;;;5416357;26;20350;-54
2024/04/17 15:27:35;;;;;;;;;;;;;;;;;;5439795;26;19932;-55
2024/04/17 15:30:01;;;;;;;;;;;;;;;;;;5433908;26;20038;-55
2024/04/17 15:32:27;;;;;;;;;;;;;;;;;;5427047;26;19993;-53
2024/04/17 15:34:53;;;;;;;;;;;;;;;;;;5413140;26;20365;-53
2024/04/17 15:37:19;;;;;;;;;;;;;;;;;;5442908;26;19936;-54
2024/04/17 15:39:45;;;;;;;;;;;;;;;;;;5448271;26;19924;-57
2024/04/17 15:42:11;;;;;;;;;;;;;;;;;;5443945;26;19948;-55
2024/04/17 15:44:37;;;;;;;;;;;;;;;;;;5436105;26;20362;-56
2024/04/17 15:47:02;;;;;;;;;;;;;;;;;;5430900;26;20352;-57
2024/04/17 15:49:29;;;;;;;;;;;;;;;;;;5423122;26;20344;-57
2024/04/17 15:51:55;;;;;;;;;;;;;;;;;;5420694;26;20425;-57
2024/04/17 15:54:23;;;;;;;;;;;;;;;;;;5433564;26;19925;-58
2024/04/17 15:56:49;;;;;;;;;;;;;;;;;;5420604;26;20007;-57
2024/04/17 15:59:15;;;;;;;;;;;;;;;;;;5419702;26;19925;-57
2024/04/17 16:01:44;;;;;;;;;;;;;;;;;;5435968;26;20344;-57
2024/04/17 16:04:10;;;;;;;;;;;;;;;;;;5437690;26;20381;-56
2024/04/17 16:06:36;;;;;;;;;;;;;;;;;;5416427;26;19932;-55
2024/04/17 16:09:02;;;;;;;;;;;;;;;;;;5447495;26;20361;-55
2024/04/17 16:11:28;;;;;;;;;;;;;;;;;;5442007;26;19944;-56
2024/04/17 16:13:54;;;;;;;;;;;;;;;;;;5446041;26;19932;-56
2024/04/17 16:16:21;;;;;;;;;;;;;;;;;;5424827;26;20365;-56
2024/04/17 16:18:47;;;;;;;;;;;;;;;;;;5443696;26;19933;-56
2024/04/17 16:21:13;;;;;;;;;;;;;;;;;;5448503;26;20282;-56
2024/04/17 16:23:39;;;;;;;;;;;;;;;;;;5436621;26;19925;-56
2024/04/17 16:26:05;;;;;;;;;;;;;;;;;;5422448;26;20468;-55
2024/04/17 16:28:31;;;;;;;;;;;;;;;;;;5437413;26;19933;-56
2024/04/17 16:30:57;;;;;;;;;;;;;;;;;;5435831;26;19931;-56
2024/04/17 16:33:23;;;;;;;;;;;;;;;;;;5427366;26;19924;-55
2024/04/17 16:35:49;;;;;;;;;;;;;;;;;;5440201;26;19925;-56
2024/04/17 16:38:15;;;;;;;;;;;;;;;;;;5420883;26;19932;-56
2024/04/17 16:40:40;;;;;;;;;;;;;;;;;;5424375;26;19925;-56